sensor_id;sensor_type;location;lat;lon;timestamp;P1;durP1;ratioP1;P2;durP2;ratioP2
43297;SDS011;28892;55.640;37.532;2023-06-22T00:02:17;7.05;;;3.60;;
43297;SDS011;28892;55.640;37.532;2023-06-22T00:04:43;5.00;;;3.53;;
43297;SDS011;28892;55.640;37.532;2023-06-22T00:07:10;5.28;;;3.38;;
43297;SDS011;28892;55.640;37.532;2023-06-22T00:09:48;7.55;;;3.67;;
43297;SDS011;28892;55.640;37.532;2023-06-22T00:12:14;3.72;;;3.35;;
43297;SDS011;28892;55.640;37.532;2023-06-22T00:14:40;4.93;;;3.58;;
43297;SDS011;28892;55.640;37.532;2023-06-22T00:17:05;5.25;;;3.60;;
43297;SDS011;28892;55.640;37.532;2023-06-22T00:19:31;5.43;;;4.10;;
43297;SDS011;28892;55.640;37.532;2023-06-22T00:21:58;7.43;;;4.45;;
43297;SDS011;28892;55.640;37.532;2023-06-22T00:24:25;5.60;;;3.72;;
43297;SDS011;28892;55.640;37.532;2023-06-22T00:26:58;3.80;;;3.40;;
43297;SDS011;28892;55.640;37.532;2023-06-22T00:29:24;5.13;;;4.03;;
43297;SDS011;28892;55.640;37.532;2023-06-22T00:31:50;6.43;;;3.90;;
43297;SDS011;28892;55.640;37.532;2023-06-22T00:34:16;4.80;;;3.78;;
43297;SDS011;28892;55.640;37.532;2023-06-22T00:36:42;4.82;;;3.70;;
43297;SDS011;28892;55.640;37.532;2023-06-22T00:39:08;7.63;;;3.70;;
43297;SDS011;28892;55.640;37.532;2023-06-22T00:41:34;5.78;;;3.47;;
43297;SDS011;28892;55.640;37.532;2023-06-22T00:44:00;6.82;;;4.03;;
43297;SDS011;28892;55.640;37.532;2023-06-22T00:46:25;6.70;;;3.90;;
43297;SDS011;28892;55.640;37.532;2023-06-22T00:48:51;5.50;;;3.47;;
43297;SDS011;28892;55.640;37.532;2023-06-22T00:51:18;8.50;;;3.55;;
43297;SDS011;28892;55.640;37.532;2023-06-22T00:53:50;5.43;;;3.90;;
43297;SDS011;28892;55.640;37.532;2023-06-22T00:56:19;6.93;;;3.70;;
43297;SDS011;28892;55.640;37.532;2023-06-22T00:58:53;5.65;;;4.00;;
43297;SDS011;28892;55.640;37.532;2023-06-22T01:01:19;5.53;;;3.70;;
43297;SDS011;28892;55.640;37.532;2023-06-22T01:03:49;7.10;;;3.85;;
43297;SDS011;28892;55.640;37.532;2023-06-22T01:06:27;6.07;;;3.72;;
43297;SDS011;28892;55.640;37.532;2023-06-22T01:09:10;4.20;;;3.42;;
43297;SDS011;28892;55.640;37.532;2023-06-22T01:11:42;4.57;;;3.60;;
43297;SDS011;28892;55.640;37.532;2023-06-22T01:16:44;8.13;;;3.67;;
43297;SDS011;28892;55.640;37.532;2023-06-22T01:19:25;6.80;;;3.58;;
43297;SDS011;28892;55.640;37.532;2023-06-22T01:22:02;8.40;;;3.92;;
43297;SDS011;28892;55.640;37.532;2023-06-22T01:30:08;3.95;;;3.38;;
43297;SDS011;28892;55.640;37.532;2023-06-22T01:32:36;5.57;;;3.50;;
43297;SDS011;28892;55.640;37.532;2023-06-22T01:35:05;5.38;;;4.03;;
43297;SDS011;28892;55.640;37.532;2023-06-22T01:37:33;6.40;;;4.00;;
43297;SDS011;28892;55.640;37.532;2023-06-22T01:40:00;6.50;;;3.75;;
43297;SDS011;28892;55.640;37.532;2023-06-22T01:42:29;5.90;;;3.40;;
43297;SDS011;28892;55.640;37.532;2023-06-22T01:44:56;6.10;;;3.70;;
43297;SDS011;28892;55.640;37.532;2023-06-22T01:47:23;4.22;;;3.35;;
43297;SDS011;28892;55.640;37.532;2023-06-22T01:49:50;6.45;;;4.00;;
43297;SDS011;28892;55.640;37.532;2023-06-22T01:52:20;6.03;;;3.50;;
43297;SDS011;28892;55.640;37.532;2023-06-22T01:54:48;7.78;;;4.13;;
43297;SDS011;28892;55.640;37.532;2023-06-22T01:57:14;4.63;;;3.55;;
43297;SDS011;28892;55.640;37.532;2023-06-22T02:00:00;4.50;;;3.80;;
43297;SDS011;28892;55.640;37.532;2023-06-22T02:02:32;5.60;;;4.00;;
43297;SDS011;28892;55.640;37.532;2023-06-22T02:05:08;7.22;;;3.92;;
43297;SDS011;28892;55.640;37.532;2023-06-22T02:08:11;4.78;;;3.83;;
43297;SDS011;28892;55.640;37.532;2023-06-22T02:10:37;5.22;;;3.83;;
43297;SDS011;28892;55.640;37.532;2023-06-22T02:13:07;5.35;;;4.00;;
43297;SDS011;28892;55.640;37.532;2023-06-22T02:15:38;6.10;;;3.72;;
43297;SDS011;28892;55.640;37.532;2023-06-22T02:18:05;4.03;;;3.65;;
43297;SDS011;28892;55.640;37.532;2023-06-22T02:20:51;5.68;;;4.00;;
43297;SDS011;28892;55.640;37.532;2023-06-22T02:23:18;6.53;;;4.05;;
43297;SDS011;28892;55.640;37.532;2023-06-22T02:25:43;8.70;;;4.43;;
43297;SDS011;28892;55.640;37.532;2023-06-22T02:28:11;5.60;;;3.92;;
43297;SDS011;28892;55.640;37.532;2023-06-22T02:30:37;6.50;;;4.28;;
43297;SDS011;28892;55.640;37.532;2023-06-22T02:33:06;6.05;;;4.13;;
43297;SDS011;28892;55.640;37.532;2023-06-22T02:35:32;6.97;;;3.92;;
43297;SDS011;28892;55.640;37.532;2023-06-22T02:38:03;7.07;;;4.20;;
43297;SDS011;28892;55.640;37.532;2023-06-22T02:40:30;4.63;;;3.88;;
43297;SDS011;28892;55.640;37.532;2023-06-22T02:42:57;5.80;;;4.55;;
43297;SDS011;28892;55.640;37.532;2023-06-22T02:45:28;8.90;;;4.35;;
43297;SDS011;28892;55.640;37.532;2023-06-22T02:47:54;7.65;;;4.30;;
43297;SDS011;28892;55.640;37.532;2023-06-22T02:50:21;10.63;;;4.70;;
43297;SDS011;28892;55.640;37.532;2023-06-22T02:52:47;5.97;;;3.95;;
43297;SDS011;28892;55.640;37.532;2023-06-22T02:55:15;6.13;;;4.20;;
43297;SDS011;28892;55.640;37.532;2023-06-22T02:57:47;7.97;;;4.28;;
43297;SDS011;28892;55.640;37.532;2023-06-22T03:00:13;10.27;;;4.32;;
43297;SDS011;28892;55.640;37.532;2023-06-22T03:02:45;6.22;;;4.55;;
43297;SDS011;28892;55.640;37.532;2023-06-22T03:05:12;6.68;;;4.40;;
43297;SDS011;28892;55.640;37.532;2023-06-22T03:07:40;7.35;;;4.20;;
43297;SDS011;28892;55.640;37.532;2023-06-22T03:10:09;8.90;;;4.28;;
43297;SDS011;28892;55.640;37.532;2023-06-22T03:12:37;5.10;;;4.18;;
43297;SDS011;28892;55.640;37.532;2023-06-22T03:15:07;7.57;;;3.97;;
43297;SDS011;28892;55.640;37.532;2023-06-22T03:17:35;4.93;;;3.92;;
43297;SDS011;28892;55.640;37.532;2023-06-22T03:20:03;9.85;;;4.32;;
43297;SDS011;28892;55.640;37.532;2023-06-22T03:22:40;10.48;;;4.40;;
43297;SDS011;28892;55.640;37.532;2023-06-22T03:25:08;6.25;;;3.97;;
43297;SDS011;28892;55.640;37.532;2023-06-22T03:27:45;7.13;;;4.35;;
43297;SDS011;28892;55.640;37.532;2023-06-22T03:30:12;6.70;;;4.53;;
43297;SDS011;28892;55.640;37.532;2023-06-22T03:32:38;5.07;;;3.88;;
43297;SDS011;28892;55.640;37.532;2023-06-22T03:35:06;9.02;;;4.22;;
43297;SDS011;28892;55.640;37.532;2023-06-22T03:37:34;5.60;;;4.78;;
43297;SDS011;28892;55.640;37.532;2023-06-22T03:40:04;8.07;;;4.53;;
43297;SDS011;28892;55.640;37.532;2023-06-22T03:42:34;10.20;;;4.07;;
43297;SDS011;28892;55.640;37.532;2023-06-22T03:45:03;5.60;;;4.00;;
43297;SDS011;28892;55.640;37.532;2023-06-22T03:47:34;5.57;;;3.75;;
43297;SDS011;28892;55.640;37.532;2023-06-22T03:50:01;4.88;;;4.03;;
43297;SDS011;28892;55.640;37.532;2023-06-22T03:52:30;9.90;;;4.25;;
43297;SDS011;28892;55.640;37.532;2023-06-22T03:54:58;6.95;;;4.10;;
43297;SDS011;28892;55.640;37.532;2023-06-22T03:57:23;5.60;;;3.95;;
43297;SDS011;28892;55.640;37.532;2023-06-22T03:59:49;6.82;;;4.18;;
43297;SDS011;28892;55.640;37.532;2023-06-22T04:02:15;5.28;;;3.85;;
43297;SDS011;28892;55.640;37.532;2023-06-22T04:04:41;8.05;;;4.00;;
43297;SDS011;28892;55.640;37.532;2023-06-22T04:07:07;5.03;;;3.65;;
43297;SDS011;28892;55.640;37.532;2023-06-22T04:09:36;4.35;;;3.80;;
43297;SDS011;28892;55.640;37.532;2023-06-22T04:12:02;6.10;;;4.25;;
43297;SDS011;28892;55.640;37.532;2023-06-22T04:14:28;4.78;;;3.88;;
43297;SDS011;28892;55.640;37.532;2023-06-22T04:16:57;6.68;;;3.75;;
43297;SDS011;28892;55.640;37.532;2023-06-22T04:19:23;4.05;;;3.60;;
43297;SDS011;28892;55.640;37.532;2023-06-22T04:21:51;5.97;;;3.78;;
43297;SDS011;28892;55.640;37.532;2023-06-22T04:24:17;5.20;;;3.40;;
43297;SDS011;28892;55.640;37.532;2023-06-22T04:26:43;7.93;;;3.75;;
43297;SDS011;28892;55.640;37.532;2023-06-22T04:29:12;9.80;;;4.32;;
43297;SDS011;28892;55.640;37.532;2023-06-22T04:31:38;8.50;;;3.63;;
43297;SDS011;28892;55.640;37.532;2023-06-22T04:34:07;5.03;;;4.43;;
43297;SDS011;28892;55.640;37.532;2023-06-22T04:36:38;6.75;;;4.10;;
43297;SDS011;28892;55.640;37.532;2023-06-22T04:39:09;6.82;;;4.18;;
43297;SDS011;28892;55.640;37.532;2023-06-22T04:41:39;5.43;;;4.30;;
43297;SDS011;28892;55.640;37.532;2023-06-22T04:44:09;6.85;;;4.00;;
43297;SDS011;28892;55.640;37.532;2023-06-22T04:46:35;6.50;;;4.20;;
43297;SDS011;28892;55.640;37.532;2023-06-22T04:49:06;5.50;;;4.20;;
43297;SDS011;28892;55.640;37.532;2023-06-22T04:51:42;6.20;;;4.22;;
43297;SDS011;28892;55.640;37.532;2023-06-22T04:54:08;6.22;;;3.90;;
43297;SDS011;28892;55.640;37.532;2023-06-22T04:56:35;4.70;;;3.70;;
43297;SDS011;28892;55.640;37.532;2023-06-22T04:59:01;8.77;;;4.35;;
43297;SDS011;28892;55.640;37.532;2023-06-22T05:01:29;5.72;;;4.18;;
43297;SDS011;28892;55.640;37.532;2023-06-22T05:03:58;8.50;;;3.85;;
43297;SDS011;28892;55.640;37.532;2023-06-22T05:06:26;6.30;;;3.65;;
43297;SDS011;28892;55.640;37.532;2023-06-22T05:09:03;7.40;;;3.72;;
43297;SDS011;28892;55.640;37.532;2023-06-22T05:11:30;9.68;;;3.70;;
43297;SDS011;28892;55.640;37.532;2023-06-22T05:13:58;6.03;;;3.65;;
43297;SDS011;28892;55.640;37.532;2023-06-22T05:16:30;6.63;;;3.85;;
43297;SDS011;28892;55.640;37.532;2023-06-22T05:22:40;6.47;;;3.40;;
43297;SDS011;28892;55.640;37.532;2023-06-22T05:25:08;5.05;;;3.65;;
43297;SDS011;28892;55.640;37.532;2023-06-22T05:27:36;4.10;;;3.70;;
43297;SDS011;28892;55.640;37.532;2023-06-22T05:30:06;5.20;;;3.65;;
43297;SDS011;28892;55.640;37.532;2023-06-22T05:32:32;5.57;;;3.80;;
43297;SDS011;28892;55.640;37.532;2023-06-22T05:34:59;5.53;;;3.85;;
43297;SDS011;28892;55.640;37.532;2023-06-22T05:37:25;6.25;;;3.72;;
43297;SDS011;28892;55.640;37.532;2023-06-22T05:39:52;6.50;;;3.83;;
43297;SDS011;28892;55.640;37.532;2023-06-22T05:42:17;7.60;;;4.00;;
43297;SDS011;28892;55.640;37.532;2023-06-22T05:44:44;4.07;;;3.47;;
43297;SDS011;28892;55.640;37.532;2023-06-22T05:47:09;6.55;;;3.60;;
43297;SDS011;28892;55.640;37.532;2023-06-22T05:49:35;6.38;;;3.88;;
43297;SDS011;28892;55.640;37.532;2023-06-22T05:52:01;6.05;;;4.00;;
43297;SDS011;28892;55.640;37.532;2023-06-22T05:54:27;7.10;;;3.72;;
43297;SDS011;28892;55.640;37.532;2023-06-22T05:56:54;11.63;;;4.30;;
43297;SDS011;28892;55.640;37.532;2023-06-22T05:59:20;9.75;;;3.47;;
43297;SDS011;28892;55.640;37.532;2023-06-22T06:01:46;6.35;;;3.97;;
43297;SDS011;28892;55.640;37.532;2023-06-22T06:04:18;8.60;;;4.18;;
43297;SDS011;28892;55.640;37.532;2023-06-22T06:06:45;6.80;;;4.07;;
43297;SDS011;28892;55.640;37.532;2023-06-22T06:09:13;5.97;;;3.97;;
43297;SDS011;28892;55.640;37.532;2023-06-22T06:11:42;6.70;;;3.92;;
43297;SDS011;28892;55.640;37.532;2023-06-22T06:14:08;5.70;;;3.85;;
43297;SDS011;28892;55.640;37.532;2023-06-22T06:16:36;7.53;;;3.92;;
43297;SDS011;28892;55.640;37.532;2023-06-22T06:19:02;5.60;;;3.95;;
43297;SDS011;28892;55.640;37.532;2023-06-22T06:21:28;5.10;;;3.42;;
43297;SDS011;28892;55.640;37.532;2023-06-22T06:23:54;4.05;;;3.65;;
43297;SDS011;28892;55.640;37.532;2023-06-22T06:26:25;7.88;;;4.50;;
43297;SDS011;28892;55.640;37.532;2023-06-22T06:28:55;5.28;;;3.67;;
43297;SDS011;28892;55.640;37.532;2023-06-22T06:31:22;3.83;;;3.50;;
43297;SDS011;28892;55.640;37.532;2023-06-22T06:33:49;6.07;;;3.80;;
43297;SDS011;28892;55.640;37.532;2023-06-22T06:36:15;6.90;;;3.85;;
43297;SDS011;28892;55.640;37.532;2023-06-22T06:38:42;5.00;;;3.70;;
43297;SDS011;28892;55.640;37.532;2023-06-22T06:41:08;6.68;;;3.35;;
43297;SDS011;28892;55.640;37.532;2023-06-22T06:43:34;4.68;;;3.47;;
43297;SDS011;28892;55.640;37.532;2023-06-22T06:46:00;5.93;;;3.60;;
43297;SDS011;28892;55.640;37.532;2023-06-22T06:48:26;4.03;;;3.58;;
43297;SDS011;28892;55.640;37.532;2023-06-22T06:50:51;8.50;;;4.00;;
43297;SDS011;28892;55.640;37.532;2023-06-22T06:53:17;3.75;;;3.42;;
43297;SDS011;28892;55.640;37.532;2023-06-22T06:55:44;8.45;;;3.90;;
43297;SDS011;28892;55.640;37.532;2023-06-22T06:58:11;4.38;;;3.30;;
43297;SDS011;28892;55.640;37.532;2023-06-22T07:00:38;4.85;;;3.25;;
43297;SDS011;28892;55.640;37.532;2023-06-22T07:03:06;7.30;;;3.63;;
43297;SDS011;28892;55.640;37.532;2023-06-22T07:05:32;9.77;;;4.10;;
43297;SDS011;28892;55.640;37.532;2023-06-22T07:07:58;4.68;;;3.63;;
43297;SDS011;28892;55.640;37.532;2023-06-22T07:10:25;5.30;;;3.85;;
43297;SDS011;28892;55.640;37.532;2023-06-22T07:12:51;4.40;;;3.70;;
43297;SDS011;28892;55.640;37.532;2023-06-22T07:15:17;5.68;;;3.70;;
43297;SDS011;28892;55.640;37.532;2023-06-22T07:17:42;4.30;;;3.88;;
43297;SDS011;28892;55.640;37.532;2023-06-22T07:20:09;6.20;;;3.58;;
43297;SDS011;28892;55.640;37.532;2023-06-22T07:22:39;4.40;;;3.65;;
43297;SDS011;28892;55.640;37.532;2023-06-22T07:25:05;4.55;;;3.70;;
43297;SDS011;28892;55.640;37.532;2023-06-22T07:27:38;5.13;;;3.70;;
43297;SDS011;28892;55.640;37.532;2023-06-22T07:30:27;11.45;;;10.25;;
43297;SDS011;28892;55.640;37.532;2023-06-22T07:32:54;9.48;;;8.45;;
43297;SDS011;28892;55.640;37.532;2023-06-22T07:35:20;10.45;;;8.68;;
43297;SDS011;28892;55.640;37.532;2023-06-22T07:37:46;7.28;;;5.43;;
43297;SDS011;28892;55.640;37.532;2023-06-22T07:40:12;8.95;;;8.05;;
43297;SDS011;28892;55.640;37.532;2023-06-22T07:42:38;4.93;;;3.85;;
43297;SDS011;28892;55.640;37.532;2023-06-22T07:45:07;4.05;;;3.60;;
43297;SDS011;28892;55.640;37.532;2023-06-22T07:47:34;7.15;;;3.40;;
43297;SDS011;28892;55.640;37.532;2023-06-22T07:50:01;4.05;;;3.65;;
43297;SDS011;28892;55.640;37.532;2023-06-22T07:52:32;4.32;;;3.50;;
43297;SDS011;28892;55.640;37.532;2023-06-22T07:59:24;3.40;;;3.10;;
43297;SDS011;28892;55.640;37.532;2023-06-22T08:01:52;4.28;;;3.67;;
43297;SDS011;28892;55.640;37.532;2023-06-22T08:04:21;3.63;;;3.33;;
43297;SDS011;28892;55.640;37.532;2023-06-22T08:06:56;3.78;;;3.42;;
43297;SDS011;28892;55.640;37.532;2023-06-22T08:09:45;4.00;;;3.42;;
43297;SDS011;28892;55.640;37.532;2023-06-22T08:12:13;5.00;;;3.17;;
43297;SDS011;28892;55.640;37.532;2023-06-22T08:14:56;4.63;;;3.63;;
43297;SDS011;28892;55.640;37.532;2023-06-22T08:17:58;6.72;;;3.60;;
43297;SDS011;28892;55.640;37.532;2023-06-22T08:20:26;5.05;;;3.63;;
43297;SDS011;28892;55.640;37.532;2023-06-22T08:26:58;7.40;;;3.75;;
43297;SDS011;28892;55.640;37.532;2023-06-22T08:29:27;3.95;;;3.60;;
43297;SDS011;28892;55.640;37.532;2023-06-22T08:31:53;4.88;;;3.63;;
43297;SDS011;28892;55.640;37.532;2023-06-22T08:34:22;5.05;;;3.75;;
43297;SDS011;28892;55.640;37.532;2023-06-22T08:36:53;9.90;;;4.20;;
43297;SDS011;28892;55.640;37.532;2023-06-22T08:39:19;8.15;;;4.13;;
43297;SDS011;28892;55.640;37.532;2023-06-22T08:41:48;5.60;;;4.05;;
43297;SDS011;28892;55.640;37.532;2023-06-22T08:44:16;4.22;;;3.80;;
43297;SDS011;28892;55.640;37.532;2023-06-22T08:46:43;14.10;;;4.35;;
43297;SDS011;28892;55.640;37.532;2023-06-22T08:49:32;4.55;;;3.75;;
43297;SDS011;28892;55.640;37.532;2023-06-22T08:51:58;6.25;;;4.22;;
43297;SDS011;28892;55.640;37.532;2023-06-22T08:54:26;6.78;;;3.60;;
43297;SDS011;28892;55.640;37.532;2023-06-22T08:56:52;8.18;;;4.10;;
43297;SDS011;28892;55.640;37.532;2023-06-22T08:59:18;7.05;;;4.63;;
43297;SDS011;28892;55.640;37.532;2023-06-22T09:01:47;8.63;;;4.20;;
43297;SDS011;28892;55.640;37.532;2023-06-22T09:04:16;5.05;;;3.80;;
43297;SDS011;28892;55.640;37.532;2023-06-22T09:06:42;7.35;;;3.35;;
43297;SDS011;28892;55.640;37.532;2023-06-22T09:09:28;4.97;;;3.65;;
43297;SDS011;28892;55.640;37.532;2023-06-22T09:11:53;6.18;;;3.72;;
43297;SDS011;28892;55.640;37.532;2023-06-22T09:14:47;4.65;;;3.75;;
43297;SDS011;28892;55.640;37.532;2023-06-22T09:17:16;6.60;;;5.35;;
43297;SDS011;28892;55.640;37.532;2023-06-22T09:19:43;9.27;;;8.45;;
43297;SDS011;28892;55.640;37.532;2023-06-22T09:26:34;6.50;;;4.00;;
43297;SDS011;28892;55.640;37.532;2023-06-22T09:29:00;7.15;;;3.80;;
43297;SDS011;28892;55.640;37.532;2023-06-22T09:31:26;4.82;;;3.85;;
43297;SDS011;28892;55.640;37.532;2023-06-22T09:38:30;4.47;;;3.92;;
43297;SDS011;28892;55.640;37.532;2023-06-22T09:40:56;5.78;;;3.67;;
43297;SDS011;28892;55.640;37.532;2023-06-22T09:43:22;4.72;;;4.18;;
43297;SDS011;28892;55.640;37.532;2023-06-22T09:45:48;6.65;;;5.93;;
43297;SDS011;28892;55.640;37.532;2023-06-22T09:48:17;5.95;;;4.07;;
43297;SDS011;28892;55.640;37.532;2023-06-22T09:50:43;5.05;;;4.10;;
43297;SDS011;28892;55.640;37.532;2023-06-22T09:53:09;9.05;;;3.85;;
43297;SDS011;28892;55.640;37.532;2023-06-22T09:55:58;5.35;;;3.97;;
43297;SDS011;28892;55.640;37.532;2023-06-22T09:58:49;4.50;;;4.05;;
43297;SDS011;28892;55.640;37.532;2023-06-22T10:01:18;4.80;;;3.97;;
43297;SDS011;28892;55.640;37.532;2023-06-22T10:03:57;5.53;;;3.90;;
43297;SDS011;28892;55.640;37.532;2023-06-22T10:06:35;6.32;;;4.30;;
43297;SDS011;28892;55.640;37.532;2023-06-22T10:09:17;6.45;;;4.32;;
43297;SDS011;28892;55.640;37.532;2023-06-22T10:11:43;5.50;;;4.22;;
43297;SDS011;28892;55.640;37.532;2023-06-22T10:14:09;8.85;;;4.80;;
43297;SDS011;28892;55.640;37.532;2023-06-22T10:19:54;5.00;;;4.53;;
43297;SDS011;28892;55.640;37.532;2023-06-22T10:22:28;6.10;;;4.75;;
43297;SDS011;28892;55.640;37.532;2023-06-22T10:26:27;4.43;;;4.03;;
43297;SDS011;28892;55.640;37.532;2023-06-22T10:29:21;7.00;;;4.85;;
43297;SDS011;28892;55.640;37.532;2023-06-22T10:31:52;5.72;;;4.43;;
43297;SDS011;28892;55.640;37.532;2023-06-22T10:34:41;5.30;;;4.90;;
43297;SDS011;28892;55.640;37.532;2023-06-22T10:37:08;5.68;;;4.47;;
43297;SDS011;28892;55.640;37.532;2023-06-22T10:39:51;5.78;;;5.07;;
43297;SDS011;28892;55.640;37.532;2023-06-22T10:42:22;7.07;;;4.45;;
43297;SDS011;28892;55.640;37.532;2023-06-22T10:44:54;5.55;;;4.18;;
43297;SDS011;28892;55.640;37.532;2023-06-22T10:48:36;3.85;;;3.45;;
43297;SDS011;28892;55.640;37.532;2023-06-22T10:51:42;4.50;;;3.80;;
43297;SDS011;28892;55.640;37.532;2023-06-22T10:54:26;5.50;;;4.10;;
43297;SDS011;28892;55.640;37.532;2023-06-22T10:57:02;5.60;;;3.80;;
43297;SDS011;28892;55.640;37.532;2023-06-22T10:59:29;4.53;;;3.92;;
43297;SDS011;28892;55.640;37.532;2023-06-22T11:02:06;6.15;;;3.90;;
43297;SDS011;28892;55.640;37.532;2023-06-22T11:04:32;4.60;;;4.20;;
43297;SDS011;28892;55.640;37.532;2023-06-22T11:07:05;4.30;;;3.90;;
43297;SDS011;28892;55.640;37.532;2023-06-22T11:09:40;5.28;;;4.18;;
43297;SDS011;28892;55.640;37.532;2023-06-22T11:12:08;6.93;;;4.27;;
43297;SDS011;28892;55.640;37.532;2023-06-22T11:19:33;5.30;;;4.15;;
43297;SDS011;28892;55.640;37.532;2023-06-22T11:22:08;4.65;;;4.15;;
43297;SDS011;28892;55.640;37.532;2023-06-22T11:24:38;8.05;;;4.32;;
43297;SDS011;28892;55.640;37.532;2023-06-22T11:27:12;5.07;;;4.15;;
43297;SDS011;28892;55.640;37.532;2023-06-22T11:29:55;6.35;;;4.28;;
43297;SDS011;28892;55.640;37.532;2023-06-22T11:33:30;5.07;;;4.63;;
43297;SDS011;28892;55.640;37.532;2023-06-22T11:35:59;4.85;;;4.30;;
43297;SDS011;28892;55.640;37.532;2023-06-22T11:38:33;5.65;;;4.32;;
43297;SDS011;28892;55.640;37.532;2023-06-22T11:41:09;4.85;;;4.00;;
43297;SDS011;28892;55.640;37.532;2023-06-22T11:43:42;6.07;;;4.25;;
43297;SDS011;28892;55.640;37.532;2023-06-22T11:46:18;6.72;;;4.13;;
43297;SDS011;28892;55.640;37.532;2023-06-22T11:48:44;5.13;;;4.63;;
43297;SDS011;28892;55.640;37.532;2023-06-22T11:54:33;5.20;;;4.78;;
43297;SDS011;28892;55.640;37.532;2023-06-22T11:57:03;6.20;;;4.38;;
43297;SDS011;28892;55.640;37.532;2023-06-22T11:59:29;5.00;;;4.45;;
43297;SDS011;28892;55.640;37.532;2023-06-22T12:01:58;6.10;;;4.90;;
43297;SDS011;28892;55.640;37.532;2023-06-22T12:04:23;5.70;;;4.07;;
43297;SDS011;28892;55.640;37.532;2023-06-22T12:06:50;6.10;;;4.60;;
43297;SDS011;28892;55.640;37.532;2023-06-22T12:09:19;5.53;;;4.50;;
43297;SDS011;28892;55.640;37.532;2023-06-22T12:11:59;6.10;;;4.57;;
43297;SDS011;28892;55.640;37.532;2023-06-22T12:14:56;5.28;;;4.40;;
43297;SDS011;28892;55.640;37.532;2023-06-22T12:17:33;5.90;;;4.57;;
43297;SDS011;28892;55.640;37.532;2023-06-22T12:23:48;5.72;;;4.63;;
43297;SDS011;28892;55.640;37.532;2023-06-22T12:26:14;5.30;;;4.50;;
43297;SDS011;28892;55.640;37.532;2023-06-22T12:28:54;5.47;;;4.70;;
43297;SDS011;28892;55.640;37.532;2023-06-22T12:31:37;8.43;;;4.38;;
43297;SDS011;28892;55.640;37.532;2023-06-22T12:34:05;5.28;;;4.75;;
43297;SDS011;28892;55.640;37.532;2023-06-22T12:36:31;8.48;;;4.70;;
43297;SDS011;28892;55.640;37.532;2023-06-22T12:39:03;6.28;;;4.50;;
43297;SDS011;28892;55.640;37.532;2023-06-22T12:41:37;4.60;;;4.20;;
43297;SDS011;28892;55.640;37.532;2023-06-22T12:45:40;7.00;;;4.32;;
43297;SDS011;28892;55.640;37.532;2023-06-22T12:48:10;5.10;;;4.70;;
43297;SDS011;28892;55.640;37.532;2023-06-22T12:50:44;7.60;;;5.00;;
43297;SDS011;28892;55.640;37.532;2023-06-22T12:53:13;6.43;;;4.72;;
43297;SDS011;28892;55.640;37.532;2023-06-22T12:55:39;7.15;;;5.25;;
43297;SDS011;28892;55.640;37.532;2023-06-22T13:01:25;6.45;;;4.57;;
43297;SDS011;28892;55.640;37.532;2023-06-22T13:03:51;5.22;;;4.60;;
43297;SDS011;28892;55.640;37.532;2023-06-22T13:06:16;6.22;;;5.00;;
43297;SDS011;28892;55.640;37.532;2023-06-22T13:08:42;5.25;;;4.38;;
43297;SDS011;28892;55.640;37.532;2023-06-22T13:11:08;4.78;;;4.28;;
43297;SDS011;28892;55.640;37.532;2023-06-22T13:13:34;4.57;;;4.18;;
43297;SDS011;28892;55.640;37.532;2023-06-22T13:16:00;5.80;;;4.35;;
43297;SDS011;28892;55.640;37.532;2023-06-22T13:18:26;6.55;;;4.78;;
43297;SDS011;28892;55.640;37.532;2023-06-22T13:20:52;5.72;;;4.57;;
43297;SDS011;28892;55.640;37.532;2023-06-22T13:23:24;5.72;;;4.97;;
43297;SDS011;28892;55.640;37.532;2023-06-22T13:25:59;5.20;;;4.70;;
43297;SDS011;28892;55.640;37.532;2023-06-22T13:28:25;4.97;;;4.57;;
43297;SDS011;28892;55.640;37.532;2023-06-22T13:30:51;6.55;;;4.97;;
43297;SDS011;28892;55.640;37.532;2023-06-22T13:33:20;4.93;;;4.38;;
43297;SDS011;28892;55.640;37.532;2023-06-22T13:36:33;6.55;;;4.78;;
43297;SDS011;28892;55.640;37.532;2023-06-22T13:41:50;5.18;;;4.68;;
43297;SDS011;28892;55.640;37.532;2023-06-22T13:44:24;5.40;;;4.45;;
43297;SDS011;28892;55.640;37.532;2023-06-22T13:46:54;5.32;;;4.80;;
43297;SDS011;28892;55.640;37.532;2023-06-22T13:49:21;6.07;;;4.97;;
43297;SDS011;28892;55.640;37.532;2023-06-22T13:51:59;6.60;;;4.20;;
43297;SDS011;28892;55.640;37.532;2023-06-22T13:54:26;5.03;;;4.45;;
43297;SDS011;28892;55.640;37.532;2023-06-22T13:56:52;6.10;;;4.53;;
43297;SDS011;28892;55.640;37.532;2023-06-22T13:59:24;6.43;;;5.18;;
43297;SDS011;28892;55.640;37.532;2023-06-22T14:05:47;5.57;;;4.30;;
43297;SDS011;28892;55.640;37.532;2023-06-22T14:08:17;5.20;;;4.70;;
43297;SDS011;28892;55.640;37.532;2023-06-22T14:11:28;7.27;;;4.93;;
43297;SDS011;28892;55.640;37.532;2023-06-22T14:14:10;5.53;;;4.97;;
43297;SDS011;28892;55.640;37.532;2023-06-22T14:16:49;5.72;;;4.60;;
43297;SDS011;28892;55.640;37.532;2023-06-22T14:19:21;5.60;;;5.05;;
43297;SDS011;28892;55.640;37.532;2023-06-22T14:22:31;6.47;;;4.50;;
43297;SDS011;28892;55.640;37.532;2023-06-22T14:25:17;8.57;;;5.03;;
43297;SDS011;28892;55.640;37.532;2023-06-22T14:27:43;7.90;;;5.07;;
43297;SDS011;28892;55.640;37.532;2023-06-22T14:30:12;5.22;;;4.72;;
43297;SDS011;28892;55.640;37.532;2023-06-22T14:32:38;5.25;;;4.75;;
43297;SDS011;28892;55.640;37.532;2023-06-22T14:35:07;6.50;;;4.60;;
43297;SDS011;28892;55.640;37.532;2023-06-22T14:37:42;6.47;;;5.28;;
43297;SDS011;28892;55.640;37.532;2023-06-22T14:40:08;5.50;;;5.00;;
43297;SDS011;28892;55.640;37.532;2023-06-22T14:42:36;7.22;;;4.93;;
43297;SDS011;28892;55.640;37.532;2023-06-22T14:45:25;6.00;;;4.78;;
43297;SDS011;28892;55.640;37.532;2023-06-22T14:47:56;6.20;;;5.10;;
43297;SDS011;28892;55.640;37.532;2023-06-22T14:50:31;7.40;;;5.00;;
43297;SDS011;28892;55.640;37.532;2023-06-22T14:52:57;6.43;;;5.00;;
43297;SDS011;28892;55.640;37.532;2023-06-22T14:55:23;5.78;;;5.13;;
43297;SDS011;28892;55.640;37.532;2023-06-22T14:57:49;7.78;;;5.07;;
43297;SDS011;28892;55.640;37.532;2023-06-22T15:00:42;7.18;;;4.95;;
43297;SDS011;28892;55.640;37.532;2023-06-22T15:03:23;5.68;;;5.05;;
43297;SDS011;28892;55.640;37.532;2023-06-22T15:05:56;7.93;;;5.55;;
43297;SDS011;28892;55.640;37.532;2023-06-22T15:08:49;6.63;;;4.90;;
43297;SDS011;28892;55.640;37.532;2023-06-22T15:11:40;5.10;;;4.60;;
43297;SDS011;28892;55.640;37.532;2023-06-22T15:14:06;5.70;;;4.75;;
43297;SDS011;28892;55.640;37.532;2023-06-22T15:16:33;7.72;;;5.75;;
43297;SDS011;28892;55.640;37.532;2023-06-22T15:19:20;9.23;;;5.07;;
43297;SDS011;28892;55.640;37.532;2023-06-22T15:22:07;8.18;;;5.82;;
43297;SDS011;28892;55.640;37.532;2023-06-22T15:24:43;7.57;;;5.28;;
43297;SDS011;28892;55.640;37.532;2023-06-22T15:28:20;7.57;;;5.40;;
43297;SDS011;28892;55.640;37.532;2023-06-22T15:35:05;6.18;;;5.20;;
43297;SDS011;28892;55.640;37.532;2023-06-22T15:41:46;7.45;;;5.32;;
43297;SDS011;28892;55.640;37.532;2023-06-22T15:47:06;7.03;;;5.15;;
43297;SDS011;28892;55.640;37.532;2023-06-22T15:49:59;5.97;;;5.18;;
43297;SDS011;28892;55.640;37.532;2023-06-22T15:52:35;8.15;;;5.30;;
43297;SDS011;28892;55.640;37.532;2023-06-22T15:55:04;6.30;;;5.70;;
43297;SDS011;28892;55.640;37.532;2023-06-22T15:57:33;7.25;;;5.10;;
43297;SDS011;28892;55.640;37.532;2023-06-22T16:00:08;5.77;;;5.13;;
43297;SDS011;28892;55.640;37.532;2023-06-22T16:02:45;6.53;;;4.88;;
43297;SDS011;28892;55.640;37.532;2023-06-22T16:05:15;5.63;;;5.13;;
43297;SDS011;28892;55.640;37.532;2023-06-22T16:07:44;6.60;;;5.05;;